SIPK1: Pottawatomie Creek nr Scipio 1SE

                                SHEF ID:       SIPK1     POTTAWATOMIE C NR SCIPIO, KS
STATION TYPE:

PRECIP STAGE RIV-FLOW BAT-LOAD
in ft cfs volt
Ccp-Rev Ccp-Rev Ccp-Rev Ccp-Rev
(America/Chicago)
07/06 00:00 ---- 6.74 599 12.73
07/06 01:00 ---- 6.65 585 12.73
07/06 02:00 ---- 6.52 565 12.73
07/06 03:00 ---- 6.39 546 12.73
07/06 04:00 ---- 6.23 522 12.73
07/06 05:00 ---- 6.08 500 12.65
07/06 06:00 ---- 5.92 477 12.65
07/06 07:00 ---- 5.76 454 12.65
07/06 08:00 ---- 5.60 432 12.65
07/06 09:00 ---- 5.46 413 ----
07/06 10:00 ---- 5.32 394 13.13
07/06 11:00 ---- 5.21 379 13.60
07/06 12:00 ---- 5.09 364 13.53
07/06 13:00 ---- 4.98 345 13.44
07/06 14:00 ---- 4.88 326 13.44
07/06 15:00 ---- 4.80 311 13.44
07/06 16:00 ---- 4.71 295 13.37
07/06 17:00 ---- 4.65 282 13.29
07/06 18:00 ---- 4.59 265 13.13
07/06 19:00 ---- 4.54 251 13.29
07/06 20:00 ---- 4.48 234 12.89
07/06 21:00 ---- 4.44 225 12.81
07/06 22:00 ---- 4.40 215 12.81
07/06 23:00 ---- 4.35 203 12.81
Data processed at Wed 08Jul2026 15:28 GMT

NOTICE: If you are parsing this page

Please convert to using our Data API. Starting early 2026 we will be migrating to: https://water.usace.army.mil with modern pages rendered in JavaScript. When this migration completes you will no longer be able to scrape this page! CWMSDataAPI (CDA)

Timeseries IDs (TSIDs)

TSIDs used from left to right in the data table
SCIP.Precip-Inc.Total.1Hour.1Hour.Ccp-Rev
SCIP.Stage.Inst.1Hour.0.Ccp-Rev
SCIP.Flow.Inst.1Hour.0.Ccp-Rev
SCIP.Volt-Battery Load.Inst.1Hour.0.Ccp-Rev

                            

All information presented herein is the property of the government of the United States of America and may be revised or deleted at any time without prior notice. Dissemination of this information without the expressed written consent of the Public Affairs Office, Tulsa District U.S. Army Corps of Engineers is strictly prohibited. These data are gathered electronically and, as presented, have NOT undergone any form of quality control. These data are NOT guaranteed to be valid or correct.